sensor_id;sensor_type;location;lat;lon;timestamp;P1;durP1;ratioP1;P2;durP2;ratioP2
4422;SDS011;2224;49.814;8.650;2024-03-17T00:01:32;6.70;;;6.10;;
4422;SDS011;2224;49.814;8.650;2024-03-17T00:03:58;7.20;;;5.30;;
4422;SDS011;2224;49.814;8.650;2024-03-17T00:06:24;7.93;;;6.33;;
4422;SDS011;2224;49.814;8.650;2024-03-17T00:08:49;7.20;;;5.50;;
4422;SDS011;2224;49.814;8.650;2024-03-17T00:11:15;5.83;;;5.30;;
4422;SDS011;2224;49.814;8.650;2024-03-17T00:13:40;6.47;;;4.93;;
4422;SDS011;2224;49.814;8.650;2024-03-17T00:16:06;9.03;;;5.70;;
4422;SDS011;2224;49.814;8.650;2024-03-17T00:18:32;5.77;;;4.53;;
4422;SDS011;2224;49.814;8.650;2024-03-17T00:20:57;11.93;;;5.13;;
4422;SDS011;2224;49.814;8.650;2024-03-17T00:23:22;7.70;;;5.30;;
4422;SDS011;2224;49.814;8.650;2024-03-17T00:25:47;5.63;;;5.13;;
4422;SDS011;2224;49.814;8.650;2024-03-17T00:28:13;6.27;;;5.33;;
4422;SDS011;2224;49.814;8.650;2024-03-17T00:30:38;10.63;;;5.90;;
4422;SDS011;2224;49.814;8.650;2024-03-17T00:33:04;5.93;;;5.33;;
4422;SDS011;2224;49.814;8.650;2024-03-17T00:35:29;6.63;;;5.70;;
4422;SDS011;2224;49.814;8.650;2024-03-17T00:37:55;7.70;;;5.80;;
4422;SDS011;2224;49.814;8.650;2024-03-17T00:40:21;6.47;;;5.87;;
4422;SDS011;2224;49.814;8.650;2024-03-17T00:42:46;11.23;;;6.67;;
4422;SDS011;2224;49.814;8.650;2024-03-17T00:45:12;6.37;;;5.70;;
4422;SDS011;2224;49.814;8.650;2024-03-17T00:47:37;7.70;;;6.23;;
4422;SDS011;2224;49.814;8.650;2024-03-17T00:50:03;6.23;;;5.63;;
4422;SDS011;2224;49.814;8.650;2024-03-17T00:52:31;6.73;;;4.57;;
4422;SDS011;2224;49.814;8.650;2024-03-17T00:54:56;5.10;;;4.70;;
4422;SDS011;2224;49.814;8.650;2024-03-17T00:57:22;4.77;;;4.33;;
4422;SDS011;2224;49.814;8.650;2024-03-17T00:59:47;4.83;;;4.03;;
4422;SDS011;2224;49.814;8.650;2024-03-17T01:02:12;4.93;;;4.43;;
4422;SDS011;2224;49.814;8.650;2024-03-17T01:04:41;4.20;;;3.80;;
4422;SDS011;2224;49.814;8.650;2024-03-17T01:07:06;4.50;;;4.10;;
4422;SDS011;2224;49.814;8.650;2024-03-17T01:09:32;6.57;;;3.60;;
4422;SDS011;2224;49.814;8.650;2024-03-17T01:11:57;5.50;;;3.70;;
4422;SDS011;2224;49.814;8.650;2024-03-17T01:14:23;4.43;;;3.90;;
4422;SDS011;2224;49.814;8.650;2024-03-17T01:16:50;4.63;;;3.50;;
4422;SDS011;2224;49.814;8.650;2024-03-17T01:19:15;5.03;;;3.97;;
4422;SDS011;2224;49.814;8.650;2024-03-17T01:21:41;4.10;;;3.70;;
4422;SDS011;2224;49.814;8.650;2024-03-17T01:24:06;4.67;;;4.27;;
4422;SDS011;2224;49.814;8.650;2024-03-17T01:26:32;4.40;;;4.00;;
4422;SDS011;2224;49.814;8.650;2024-03-17T01:28:58;5.10;;;3.50;;
4422;SDS011;2224;49.814;8.650;2024-03-17T01:31:23;5.90;;;4.03;;
4422;SDS011;2224;49.814;8.650;2024-03-17T01:33:49;5.20;;;4.40;;
4422;SDS011;2224;49.814;8.650;2024-03-17T01:36:15;6.27;;;5.50;;
4422;SDS011;2224;49.814;8.650;2024-03-17T01:38:40;5.90;;;5.07;;
4422;SDS011;2224;49.814;8.650;2024-03-17T01:41:06;5.30;;;4.40;;
4422;SDS011;2224;49.814;8.650;2024-03-17T01:43:32;4.37;;;3.93;;
4422;SDS011;2224;49.814;8.650;2024-03-17T01:45:58;4.73;;;3.67;;
4422;SDS011;2224;49.814;8.650;2024-03-17T01:48:24;4.63;;;4.23;;
4422;SDS011;2224;49.814;8.650;2024-03-17T01:50:49;4.53;;;4.13;;
4422;SDS011;2224;49.814;8.650;2024-03-17T01:53:17;5.00;;;4.50;;
4422;SDS011;2224;49.814;8.650;2024-03-17T01:55:43;4.30;;;3.83;;
4422;SDS011;2224;49.814;8.650;2024-03-17T01:58:08;4.07;;;3.60;;
4422;SDS011;2224;49.814;8.650;2024-03-17T02:00:39;4.60;;;4.10;;
4422;SDS011;2224;49.814;8.650;2024-03-17T02:03:08;5.43;;;3.90;;
4422;SDS011;2224;49.814;8.650;2024-03-17T02:05:34;6.90;;;3.57;;
4422;SDS011;2224;49.814;8.650;2024-03-17T02:08:06;5.40;;;3.93;;
4422;SDS011;2224;49.814;8.650;2024-03-17T02:10:32;3.87;;;3.57;;
4422;SDS011;2224;49.814;8.650;2024-03-17T02:13:03;3.77;;;3.43;;
4422;SDS011;2224;49.814;8.650;2024-03-17T02:15:29;3.17;;;2.87;;
4422;SDS011;2224;49.814;8.650;2024-03-17T02:17:55;4.30;;;3.63;;
4422;SDS011;2224;49.814;8.650;2024-03-17T02:20:21;4.00;;;3.70;;
4422;SDS011;2224;49.814;8.650;2024-03-17T02:23:06;3.53;;;3.23;;
4422;SDS011;2224;49.814;8.650;2024-03-17T02:25:31;4.50;;;3.50;;
4422;SDS011;2224;49.814;8.650;2024-03-17T02:27:57;4.80;;;3.87;;
4422;SDS011;2224;49.814;8.650;2024-03-17T02:30:22;3.83;;;3.50;;
4422;SDS011;2224;49.814;8.650;2024-03-17T02:32:51;5.63;;;3.73;;
4422;SDS011;2224;49.814;8.650;2024-03-17T02:35:18;4.10;;;3.60;;
4422;SDS011;2224;49.814;8.650;2024-03-17T02:37:43;5.90;;;4.07;;
4422;SDS011;2224;49.814;8.650;2024-03-17T02:40:08;5.37;;;3.60;;
4422;SDS011;2224;49.814;8.650;2024-03-17T02:42:35;4.57;;;3.90;;
4422;SDS011;2224;49.814;8.650;2024-03-17T02:45:03;4.77;;;3.50;;
4422;SDS011;2224;49.814;8.650;2024-03-17T02:47:29;3.93;;;3.63;;
4422;SDS011;2224;49.814;8.650;2024-03-17T02:49:55;3.37;;;3.07;;
4422;SDS011;2224;49.814;8.650;2024-03-17T02:52:20;4.60;;;4.20;;
4422;SDS011;2224;49.814;8.650;2024-03-17T02:54:45;6.43;;;4.90;;
4422;SDS011;2224;49.814;8.650;2024-03-17T02:57:10;4.40;;;4.03;;
4422;SDS011;2224;49.814;8.650;2024-03-17T02:59:36;4.17;;;3.77;;
4422;SDS011;2224;49.814;8.650;2024-03-17T03:02:01;4.03;;;3.63;;
4422;SDS011;2224;49.814;8.650;2024-03-17T03:04:27;3.67;;;3.10;;
4422;SDS011;2224;49.814;8.650;2024-03-17T03:06:52;3.47;;;3.17;;
4422;SDS011;2224;49.814;8.650;2024-03-17T03:09:18;3.47;;;3.17;;
4422;SDS011;2224;49.814;8.650;2024-03-17T03:11:57;3.63;;;2.90;;
4422;SDS011;2224;49.814;8.650;2024-03-17T03:14:23;3.17;;;2.87;;
4422;SDS011;2224;49.814;8.650;2024-03-17T03:16:48;3.73;;;3.43;;
4422;SDS011;2224;49.814;8.650;2024-03-17T03:19:14;3.33;;;3.07;;
4422;SDS011;2224;49.814;8.650;2024-03-17T03:21:40;3.43;;;3.13;;
4422;SDS011;2224;49.814;8.650;2024-03-17T03:24:05;5.57;;;3.40;;
4422;SDS011;2224;49.814;8.650;2024-03-17T03:26:31;3.63;;;3.27;;
4422;SDS011;2224;49.814;8.650;2024-03-17T03:28:56;6.90;;;3.33;;
4422;SDS011;2224;49.814;8.650;2024-03-17T03:31:21;3.00;;;2.80;;
4422;SDS011;2224;49.814;8.650;2024-03-17T03:33:47;3.87;;;2.77;;
4422;SDS011;2224;49.814;8.650;2024-03-17T03:36:13;4.47;;;3.40;;
4422;SDS011;2224;49.814;8.650;2024-03-17T03:38:39;5.60;;;3.27;;
4422;SDS011;2224;49.814;8.650;2024-03-17T03:41:15;3.20;;;2.90;;
4422;SDS011;2224;49.814;8.650;2024-03-17T03:43:41;3.40;;;3.20;;
4422;SDS011;2224;49.814;8.650;2024-03-17T03:46:07;3.90;;;3.60;;
4422;SDS011;2224;49.814;8.650;2024-03-17T03:48:33;4.00;;;3.00;;
4422;SDS011;2224;49.814;8.650;2024-03-17T03:50:59;3.67;;;3.00;;
4422;SDS011;2224;49.814;8.650;2024-03-17T03:53:31;3.27;;;3.00;;
4422;SDS011;2224;49.814;8.650;2024-03-17T03:55:57;2.90;;;2.47;;
4422;SDS011;2224;49.814;8.650;2024-03-17T03:58:23;3.33;;;3.13;;
4422;SDS011;2224;49.814;8.650;2024-03-17T04:00:49;6.10;;;3.43;;
4422;SDS011;2224;49.814;8.650;2024-03-17T04:03:14;3.57;;;3.00;;
4422;SDS011;2224;49.814;8.650;2024-03-17T04:05:39;4.93;;;2.90;;
4422;SDS011;2224;49.814;8.650;2024-03-17T04:08:05;3.27;;;3.07;;
4422;SDS011;2224;49.814;8.650;2024-03-17T04:10:30;3.80;;;2.90;;
4422;SDS011;2224;49.814;8.650;2024-03-17T04:12:55;3.67;;;3.33;;
4422;SDS011;2224;49.814;8.650;2024-03-17T04:15:22;4.73;;;3.77;;
4422;SDS011;2224;49.814;8.650;2024-03-17T04:17:47;3.20;;;2.90;;
4422;SDS011;2224;49.814;8.650;2024-03-17T04:20:12;4.70;;;3.80;;
4422;SDS011;2224;49.814;8.650;2024-03-17T04:22:39;3.77;;;3.47;;
4422;SDS011;2224;49.814;8.650;2024-03-17T04:25:05;4.80;;;3.20;;
4422;SDS011;2224;49.814;8.650;2024-03-17T04:27:31;3.60;;;3.30;;
4422;SDS011;2224;49.814;8.650;2024-03-17T04:29:57;4.00;;;3.43;;
4422;SDS011;2224;49.814;8.650;2024-03-17T04:32:24;3.27;;;2.97;;
4422;SDS011;2224;49.814;8.650;2024-03-17T04:34:49;4.50;;;4.10;;
4422;SDS011;2224;49.814;8.650;2024-03-17T04:37:15;3.13;;;2.90;;
4422;SDS011;2224;49.814;8.650;2024-03-17T04:39:41;3.90;;;3.00;;
4422;SDS011;2224;49.814;8.650;2024-03-17T04:42:10;3.40;;;3.10;;
4422;SDS011;2224;49.814;8.650;2024-03-17T04:44:36;3.27;;;3.07;;
4422;SDS011;2224;49.814;8.650;2024-03-17T04:47:01;4.00;;;3.53;;
4422;SDS011;2224;49.814;8.650;2024-03-17T04:49:31;5.30;;;2.80;;
4422;SDS011;2224;49.814;8.650;2024-03-17T04:51:57;4.57;;;3.10;;
4422;SDS011;2224;49.814;8.650;2024-03-17T04:54:22;5.17;;;2.90;;
4422;SDS011;2224;49.814;8.650;2024-03-17T04:56:47;3.50;;;2.73;;
4422;SDS011;2224;49.814;8.650;2024-03-17T04:59:13;3.50;;;2.53;;
4422;SDS011;2224;49.814;8.650;2024-03-17T05:01:39;2.93;;;2.73;;
4422;SDS011;2224;49.814;8.650;2024-03-17T05:04:04;3.40;;;3.10;;
4422;SDS011;2224;49.814;8.650;2024-03-17T05:06:29;3.17;;;2.67;;
4422;SDS011;2224;49.814;8.650;2024-03-17T05:08:55;2.87;;;2.57;;
4422;SDS011;2224;49.814;8.650;2024-03-17T05:11:20;3.63;;;3.00;;
4422;SDS011;2224;49.814;8.650;2024-03-17T05:13:46;3.60;;;3.30;;
4422;SDS011;2224;49.814;8.650;2024-03-17T05:16:11;2.90;;;2.70;;
4422;SDS011;2224;49.814;8.650;2024-03-17T05:18:36;3.27;;;3.03;;
4422;SDS011;2224;49.814;8.650;2024-03-17T05:21:07;2.80;;;2.60;;
4422;SDS011;2224;49.814;8.650;2024-03-17T05:23:34;6.17;;;3.17;;
4422;SDS011;2224;49.814;8.650;2024-03-17T05:26:00;4.37;;;2.80;;
4422;SDS011;2224;49.814;8.650;2024-03-17T05:28:26;3.87;;;3.03;;
4422;SDS011;2224;49.814;8.650;2024-03-17T05:30:53;3.70;;;2.43;;
4422;SDS011;2224;49.814;8.650;2024-03-17T05:33:19;2.93;;;2.73;;
4422;SDS011;2224;49.814;8.650;2024-03-17T05:35:56;2.47;;;2.27;;
4422;SDS011;2224;49.814;8.650;2024-03-17T05:38:22;3.30;;;2.57;;
4422;SDS011;2224;49.814;8.650;2024-03-17T05:40:52;3.20;;;2.80;;
4422;SDS011;2224;49.814;8.650;2024-03-17T05:43:18;4.33;;;3.93;;
4422;SDS011;2224;49.814;8.650;2024-03-17T05:45:44;3.07;;;2.73;;
4422;SDS011;2224;49.814;8.650;2024-03-17T05:48:09;2.57;;;2.37;;
4422;SDS011;2224;49.814;8.650;2024-03-17T05:50:34;2.70;;;2.50;;
4422;SDS011;2224;49.814;8.650;2024-03-17T05:53:00;2.47;;;2.27;;
4422;SDS011;2224;49.814;8.650;2024-03-17T05:55:25;2.80;;;2.50;;
4422;SDS011;2224;49.814;8.650;2024-03-17T05:57:51;5.03;;;2.70;;
4422;SDS011;2224;49.814;8.650;2024-03-17T06:00:16;2.50;;;2.30;;
4422;SDS011;2224;49.814;8.650;2024-03-17T06:02:41;5.20;;;2.50;;
4422;SDS011;2224;49.814;8.650;2024-03-17T06:05:07;2.80;;;2.60;;
4422;SDS011;2224;49.814;8.650;2024-03-17T06:07:35;4.07;;;2.70;;
4422;SDS011;2224;49.814;8.650;2024-03-17T06:10:00;2.40;;;2.20;;
4422;SDS011;2224;49.814;8.650;2024-03-17T06:12:26;3.07;;;2.70;;
4422;SDS011;2224;49.814;8.650;2024-03-17T06:14:51;3.13;;;2.63;;
4422;SDS011;2224;49.814;8.650;2024-03-17T06:17:16;2.80;;;2.60;;
4422;SDS011;2224;49.814;8.650;2024-03-17T06:19:41;5.20;;;2.70;;
4422;SDS011;2224;49.814;8.650;2024-03-17T06:22:07;8.10;;;2.60;;
4422;SDS011;2224;49.814;8.650;2024-03-17T06:24:32;3.50;;;2.70;;
4422;SDS011;2224;49.814;8.650;2024-03-17T06:26:57;2.80;;;2.60;;
4422;SDS011;2224;49.814;8.650;2024-03-17T06:29:23;7.87;;;2.80;;
4422;SDS011;2224;49.814;8.650;2024-03-17T06:31:48;6.67;;;3.10;;
4422;SDS011;2224;49.814;8.650;2024-03-17T06:34:14;6.37;;;2.90;;
4422;SDS011;2224;49.814;8.650;2024-03-17T06:36:40;2.60;;;2.40;;
4422;SDS011;2224;49.814;8.650;2024-03-17T06:39:07;3.37;;;3.07;;
4422;SDS011;2224;49.814;8.650;2024-03-17T06:41:32;2.50;;;2.30;;
4422;SDS011;2224;49.814;8.650;2024-03-17T06:43:57;2.63;;;2.43;;
4422;SDS011;2224;49.814;8.650;2024-03-17T06:46:24;3.07;;;2.80;;
4422;SDS011;2224;49.814;8.650;2024-03-17T06:48:49;3.10;;;2.80;;
4422;SDS011;2224;49.814;8.650;2024-03-17T06:51:16;2.80;;;2.60;;
4422;SDS011;2224;49.814;8.650;2024-03-17T06:53:41;4.00;;;2.90;;
4422;SDS011;2224;49.814;8.650;2024-03-17T06:56:07;2.93;;;2.73;;
4422;SDS011;2224;49.814;8.650;2024-03-17T06:58:33;2.53;;;2.33;;
4422;SDS011;2224;49.814;8.650;2024-03-17T07:00:59;3.00;;;2.70;;
4422;SDS011;2224;49.814;8.650;2024-03-17T07:03:26;3.93;;;3.13;;
4422;SDS011;2224;49.814;8.650;2024-03-17T07:05:56;3.10;;;2.90;;
4422;SDS011;2224;49.814;8.650;2024-03-17T07:08:22;3.37;;;3.07;;
4422;SDS011;2224;49.814;8.650;2024-03-17T07:10:57;4.00;;;3.60;;
4422;SDS011;2224;49.814;8.650;2024-03-17T07:13:31;7.93;;;3.90;;
4422;SDS011;2224;49.814;8.650;2024-03-17T07:15:57;7.20;;;4.50;;
4422;SDS011;2224;49.814;8.650;2024-03-17T07:18:24;4.03;;;3.73;;
4422;SDS011;2224;49.814;8.650;2024-03-17T07:20:51;4.03;;;3.70;;
4422;SDS011;2224;49.814;8.650;2024-03-17T07:23:17;4.03;;;3.63;;
4422;SDS011;2224;49.814;8.650;2024-03-17T07:25:50;4.17;;;3.77;;
4422;SDS011;2224;49.814;8.650;2024-03-17T07:28:17;4.20;;;3.80;;
4422;SDS011;2224;49.814;8.650;2024-03-17T07:30:46;4.60;;;4.10;;
4422;SDS011;2224;49.814;8.650;2024-03-17T07:33:12;4.70;;;4.30;;
4422;SDS011;2224;49.814;8.650;2024-03-17T07:35:45;5.50;;;3.80;;
4422;SDS011;2224;49.814;8.650;2024-03-17T07:38:11;6.63;;;5.10;;
4422;SDS011;2224;49.814;8.650;2024-03-17T07:40:37;4.47;;;4.07;;
4422;SDS011;2224;49.814;8.650;2024-03-17T07:43:02;5.10;;;4.10;;
4422;SDS011;2224;49.814;8.650;2024-03-17T07:45:27;4.57;;;4.10;;
4422;SDS011;2224;49.814;8.650;2024-03-17T07:47:54;5.33;;;4.23;;
4422;SDS011;2224;49.814;8.650;2024-03-17T07:50:19;3.90;;;3.60;;
4422;SDS011;2224;49.814;8.650;2024-03-17T07:52:44;5.90;;;3.93;;
4422;SDS011;2224;49.814;8.650;2024-03-17T07:55:10;5.07;;;4.53;;
4422;SDS011;2224;49.814;8.650;2024-03-17T07:57:36;6.17;;;5.57;;
4422;SDS011;2224;49.814;8.650;2024-03-17T08:00:01;5.17;;;4.13;;
4422;SDS011;2224;49.814;8.650;2024-03-17T08:02:27;6.20;;;4.47;;
4422;SDS011;2224;49.814;8.650;2024-03-17T08:04:52;4.97;;;3.73;;
4422;SDS011;2224;49.814;8.650;2024-03-17T08:07:17;5.00;;;3.60;;
4422;SDS011;2224;49.814;8.650;2024-03-17T08:09:42;3.10;;;2.90;;
4422;SDS011;2224;49.814;8.650;2024-03-17T08:12:08;3.47;;;3.10;;
4422;SDS011;2224;49.814;8.650;2024-03-17T08:14:33;3.50;;;3.20;;
4422;SDS011;2224;49.814;8.650;2024-03-17T08:16:58;4.13;;;3.37;;
4422;SDS011;2224;49.814;8.650;2024-03-17T08:19:24;3.63;;;3.17;;
4422;SDS011;2224;49.814;8.650;2024-03-17T08:21:49;3.90;;;3.40;;
4422;SDS011;2224;49.814;8.650;2024-03-17T08:24:14;6.60;;;4.00;;
4422;SDS011;2224;49.814;8.650;2024-03-17T08:26:40;6.73;;;3.53;;
4422;SDS011;2224;49.814;8.650;2024-03-17T08:29:05;4.40;;;3.53;;
4422;SDS011;2224;49.814;8.650;2024-03-17T08:31:31;3.23;;;2.90;;
4422;SDS011;2224;49.814;8.650;2024-03-17T08:33:57;3.77;;;3.40;;
4422;SDS011;2224;49.814;8.650;2024-03-17T08:36:22;8.53;;;4.43;;
4422;SDS011;2224;49.814;8.650;2024-03-17T08:38:48;6.03;;;2.73;;
4422;SDS011;2224;49.814;8.650;2024-03-17T08:41:13;2.93;;;2.73;;
4422;SDS011;2224;49.814;8.650;2024-03-17T08:43:38;2.63;;;2.40;;
4422;SDS011;2224;49.814;8.650;2024-03-17T08:46:06;2.80;;;2.37;;
4422;SDS011;2224;49.814;8.650;2024-03-17T08:48:33;2.50;;;2.30;;
4422;SDS011;2224;49.814;8.650;2024-03-17T08:51:00;3.37;;;3.07;;
4422;SDS011;2224;49.814;8.650;2024-03-17T08:53:29;4.90;;;3.93;;
4422;SDS011;2224;49.814;8.650;2024-03-17T08:55:54;4.00;;;3.70;;
4422;SDS011;2224;49.814;8.650;2024-03-17T08:58:21;6.20;;;3.70;;
4422;SDS011;2224;49.814;8.650;2024-03-17T09:00:46;4.00;;;3.60;;
4422;SDS011;2224;49.814;8.650;2024-03-17T09:03:12;4.00;;;3.50;;
4422;SDS011;2224;49.814;8.650;2024-03-17T09:05:47;4.53;;;2.97;;
4422;SDS011;2224;49.814;8.650;2024-03-17T09:08:14;3.17;;;2.97;;
4422;SDS011;2224;49.814;8.650;2024-03-17T09:10:40;3.70;;;3.30;;
4422;SDS011;2224;49.814;8.650;2024-03-17T09:13:06;4.60;;;3.10;;
4422;SDS011;2224;49.814;8.650;2024-03-17T09:15:32;3.47;;;3.00;;
4422;SDS011;2224;49.814;8.650;2024-03-17T09:17:57;3.50;;;3.20;;
4422;SDS011;2224;49.814;8.650;2024-03-17T09:20:23;3.53;;;2.60;;
4422;SDS011;2224;49.814;8.650;2024-03-17T09:22:49;3.67;;;3.47;;
4422;SDS011;2224;49.814;8.650;2024-03-17T09:25:14;4.13;;;3.60;;
4422;SDS011;2224;49.814;8.650;2024-03-17T09:27:39;4.17;;;2.77;;
4422;SDS011;2224;49.814;8.650;2024-03-17T09:30:05;2.97;;;2.60;;
4422;SDS011;2224;49.814;8.650;2024-03-17T09:32:37;4.27;;;2.97;;
4422;SDS011;2224;49.814;8.650;2024-03-17T09:35:02;4.67;;;3.30;;
4422;SDS011;2224;49.814;8.650;2024-03-17T09:37:29;3.47;;;3.17;;
4422;SDS011;2224;49.814;8.650;2024-03-17T09:39:56;3.50;;;3.20;;
4422;SDS011;2224;49.814;8.650;2024-03-17T09:42:25;4.30;;;3.20;;
4422;SDS011;2224;49.814;8.650;2024-03-17T09:44:50;3.63;;;3.33;;
4422;SDS011;2224;49.814;8.650;2024-03-17T09:47:19;3.67;;;2.77;;
4422;SDS011;2224;49.814;8.650;2024-03-17T09:49:49;3.83;;;3.10;;
4422;SDS011;2224;49.814;8.650;2024-03-17T09:52:24;3.07;;;2.80;;
4422;SDS011;2224;49.814;8.650;2024-03-17T09:54:59;3.40;;;2.83;;
4422;SDS011;2224;49.814;8.650;2024-03-17T09:57:26;3.83;;;2.80;;
4422;SDS011;2224;49.814;8.650;2024-03-17T09:59:52;2.50;;;2.30;;
4422;SDS011;2224;49.814;8.650;2024-03-17T10:02:21;3.30;;;3.00;;
4422;SDS011;2224;49.814;8.650;2024-03-17T10:04:47;3.03;;;2.80;;
4422;SDS011;2224;49.814;8.650;2024-03-17T10:07:12;2.80;;;2.50;;
4422;SDS011;2224;49.814;8.650;2024-03-17T10:09:39;3.17;;;2.77;;
4422;SDS011;2224;49.814;8.650;2024-03-17T10:12:05;4.33;;;3.27;;
4422;SDS011;2224;49.814;8.650;2024-03-17T10:14:33;6.80;;;3.60;;
4422;SDS011;2224;49.814;8.650;2024-03-17T10:16:58;4.43;;;3.10;;
4422;SDS011;2224;49.814;8.650;2024-03-17T10:19:24;5.63;;;2.93;;
4422;SDS011;2224;49.814;8.650;2024-03-17T10:21:50;3.30;;;3.00;;
4422;SDS011;2224;49.814;8.650;2024-03-17T10:24:24;3.40;;;3.10;;
4422;SDS011;2224;49.814;8.650;2024-03-17T10:26:53;3.37;;;3.07;;
4422;SDS011;2224;49.814;8.650;2024-03-17T10:31:47;3.80;;;3.03;;
4422;SDS011;2224;49.814;8.650;2024-03-17T10:34:16;5.07;;;3.40;;
4422;SDS011;2224;49.814;8.650;2024-03-17T10:36:43;4.20;;;3.20;;
4422;SDS011;2224;49.814;8.650;2024-03-17T10:42:04;4.53;;;3.70;;
4422;SDS011;2224;49.814;8.650;2024-03-17T10:44:31;3.73;;;3.43;;
4422;SDS011;2224;49.814;8.650;2024-03-17T10:46:58;6.57;;;3.73;;
4422;SDS011;2224;49.814;8.650;2024-03-17T10:49:32;3.87;;;3.57;;
4422;SDS011;2224;49.814;8.650;2024-03-17T10:51:59;6.20;;;3.77;;
4422;SDS011;2224;49.814;8.650;2024-03-17T10:54:25;5.03;;;3.43;;
4422;SDS011;2224;49.814;8.650;2024-03-17T10:56:53;4.80;;;3.63;;
4422;SDS011;2224;49.814;8.650;2024-03-17T10:59:28;5.23;;;3.73;;
4422;SDS011;2224;49.814;8.650;2024-03-17T11:02:04;6.23;;;3.73;;
4422;SDS011;2224;49.814;8.650;2024-03-17T11:04:42;4.60;;;3.40;;
4422;SDS011;2224;49.814;8.650;2024-03-17T11:07:08;5.60;;;3.80;;
4422;SDS011;2224;49.814;8.650;2024-03-17T11:09:41;4.50;;;3.83;;
4422;SDS011;2224;49.814;8.650;2024-03-17T11:12:20;4.93;;;4.00;;
4422;SDS011;2224;49.814;8.650;2024-03-17T11:17:54;5.90;;;3.33;;
4422;SDS011;2224;49.814;8.650;2024-03-17T11:20:25;4.73;;;4.23;;
4422;SDS011;2224;49.814;8.650;2024-03-17T11:22:53;6.13;;;3.73;;
4422;SDS011;2224;49.814;8.650;2024-03-17T11:27:58;4.93;;;4.43;;
4422;SDS011;2224;49.814;8.650;2024-03-17T11:38:55;5.13;;;4.63;;
4422;SDS011;2224;49.814;8.650;2024-03-17T11:46:45;6.10;;;4.63;;
4422;SDS011;2224;49.814;8.650;2024-03-17T11:51:47;5.33;;;4.53;;
4422;SDS011;2224;49.814;8.650;2024-03-17T11:54:17;6.50;;;4.83;;
4422;SDS011;2224;49.814;8.650;2024-03-17T11:56:49;6.10;;;4.70;;
4422;SDS011;2224;49.814;8.650;2024-03-17T11:59:16;6.90;;;5.20;;
4422;SDS011;2224;49.814;8.650;2024-03-17T12:01:43;14.30;;;5.20;;
4422;SDS011;2224;49.814;8.650;2024-03-17T12:04:09;8.87;;;5.30;;
4422;SDS011;2224;49.814;8.650;2024-03-17T12:06:34;8.83;;;5.97;;
4422;SDS011;2224;49.814;8.650;2024-03-17T12:09:09;7.10;;;5.83;;
4422;SDS011;2224;49.814;8.650;2024-03-17T12:12:00;8.43;;;5.90;;
4422;SDS011;2224;49.814;8.650;2024-03-17T12:14:27;7.17;;;6.40;;
4422;SDS011;2224;49.814;8.650;2024-03-17T12:16:53;6.50;;;5.57;;
4422;SDS011;2224;49.814;8.650;2024-03-17T12:19:22;7.10;;;5.80;;
4422;SDS011;2224;49.814;8.650;2024-03-17T12:21:50;6.13;;;5.37;;
4422;SDS011;2224;49.814;8.650;2024-03-17T12:24:19;6.43;;;5.70;;
4422;SDS011;2224;49.814;8.650;2024-03-17T12:26:50;7.50;;;6.27;;
4422;SDS011;2224;49.814;8.650;2024-03-17T12:29:24;10.43;;;5.77;;
4422;SDS011;2224;49.814;8.650;2024-03-17T12:31:54;9.47;;;6.90;;
4422;SDS011;2224;49.814;8.650;2024-03-17T12:34:21;6.50;;;5.80;;
4422;SDS011;2224;49.814;8.650;2024-03-17T12:36:47;6.60;;;6.00;;
4422;SDS011;2224;49.814;8.650;2024-03-17T12:39:24;8.67;;;6.33;;
4422;SDS011;2224;49.814;8.650;2024-03-17T12:42:06;7.00;;;6.03;;
4422;SDS011;2224;49.814;8.650;2024-03-17T12:44:52;7.00;;;6.30;;
4422;SDS011;2224;49.814;8.650;2024-03-17T12:47:18;7.23;;;6.53;;
4422;SDS011;2224;49.814;8.650;2024-03-17T12:49:48;6.50;;;5.80;;
4422;SDS011;2224;49.814;8.650;2024-03-17T12:57:48;7.87;;;6.77;;
4422;SDS011;2224;49.814;8.650;2024-03-17T13:00:35;8.67;;;5.90;;
4422;SDS011;2224;49.814;8.650;2024-03-17T13:03:01;7.87;;;6.30;;
4422;SDS011;2224;49.814;8.650;2024-03-17T13:05:28;7.70;;;5.97;;
4422;SDS011;2224;49.814;8.650;2024-03-17T13:07:54;7.83;;;6.33;;
4422;SDS011;2224;49.814;8.650;2024-03-17T13:10:21;7.87;;;6.40;;
4422;SDS011;2224;49.814;8.650;2024-03-17T13:12:47;7.70;;;7.00;;
4422;SDS011;2224;49.814;8.650;2024-03-17T13:15:14;8.23;;;6.40;;
4422;SDS011;2224;49.814;8.650;2024-03-17T13:17:41;9.37;;;6.70;;
4422;SDS011;2224;49.814;8.650;2024-03-17T13:20:13;8.53;;;6.67;;
4422;SDS011;2224;49.814;8.650;2024-03-17T13:22:40;8.10;;;6.47;;
4422;SDS011;2224;49.814;8.650;2024-03-17T13:25:13;7.70;;;6.67;;
4422;SDS011;2224;49.814;8.650;2024-03-17T13:27:41;7.27;;;6.03;;
4422;SDS011;2224;49.814;8.650;2024-03-17T13:30:07;7.60;;;6.33;;
4422;SDS011;2224;49.814;8.650;2024-03-17T13:32:34;9.10;;;6.27;;
4422;SDS011;2224;49.814;8.650;2024-03-17T13:35:00;10.93;;;7.00;;
4422;SDS011;2224;49.814;8.650;2024-03-17T13:37:25;10.17;;;7.70;;
4422;SDS011;2224;49.814;8.650;2024-03-17T13:39:50;7.57;;;6.77;;
4422;SDS011;2224;49.814;8.650;2024-03-17T13:42:16;11.00;;;6.60;;
4422;SDS011;2224;49.814;8.650;2024-03-17T13:44:41;9.03;;;7.13;;
4422;SDS011;2224;49.814;8.650;2024-03-17T13:47:07;10.00;;;8.00;;
4422;SDS011;2224;49.814;8.650;2024-03-17T13:49:33;9.00;;;6.17;;
4422;SDS011;2224;49.814;8.650;2024-03-17T13:51:58;9.07;;;6.07;;
4422;SDS011;2224;49.814;8.650;2024-03-17T13:54:24;8.17;;;7.37;;
4422;SDS011;2224;49.814;8.650;2024-03-17T13:56:49;8.77;;;6.57;;
4422;SDS011;2224;49.814;8.650;2024-03-17T13:59:15;7.80;;;6.00;;
4422;SDS011;2224;49.814;8.650;2024-03-17T14:01:44;8.50;;;7.43;;
4422;SDS011;2224;49.814;8.650;2024-03-17T14:04:16;7.93;;;5.90;;
4422;SDS011;2224;49.814;8.650;2024-03-17T14:06:43;7.50;;;6.30;;
4422;SDS011;2224;49.814;8.650;2024-03-17T14:09:09;7.13;;;5.30;;
4422;SDS011;2224;49.814;8.650;2024-03-17T14:11:35;8.23;;;6.30;;
4422;SDS011;2224;49.814;8.650;2024-03-17T14:14:01;6.33;;;5.73;;
4422;SDS011;2224;49.814;8.650;2024-03-17T14:16:29;9.20;;;5.47;;
4422;SDS011;2224;49.814;8.650;2024-03-17T14:18:56;10.70;;;6.83;;
4422;SDS011;2224;49.814;8.650;2024-03-17T14:21:22;7.83;;;5.50;;
4422;SDS011;2224;49.814;8.650;2024-03-17T14:23:47;8.00;;;5.63;;
4422;SDS011;2224;49.814;8.650;2024-03-17T14:26:12;7.13;;;5.63;;
4422;SDS011;2224;49.814;8.650;2024-03-17T14:28:37;6.80;;;5.60;;
4422;SDS011;2224;49.814;8.650;2024-03-17T14:31:03;6.80;;;5.50;;
4422;SDS011;2224;49.814;8.650;2024-03-17T14:33:28;9.63;;;6.30;;
4422;SDS011;2224;49.814;8.650;2024-03-17T14:35:57;6.47;;;5.60;;
4422;SDS011;2224;49.814;8.650;2024-03-17T14:38:22;8.93;;;6.40;;
4422;SDS011;2224;49.814;8.650;2024-03-17T14:40:50;8.40;;;5.87;;
4422;SDS011;2224;49.814;8.650;2024-03-17T14:43:16;8.53;;;6.63;;
4422;SDS011;2224;49.814;8.650;2024-03-17T14:45:41;6.33;;;5.73;;
4422;SDS011;2224;49.814;8.650;2024-03-17T14:48:07;7.00;;;6.00;;
4422;SDS011;2224;49.814;8.650;2024-03-17T14:50:34;6.30;;;5.43;;
4422;SDS011;2224;49.814;8.650;2024-03-17T14:53:01;5.90;;;5.10;;
4422;SDS011;2224;49.814;8.650;2024-03-17T14:55:26;5.33;;;4.40;;
4422;SDS011;2224;49.814;8.650;2024-03-17T14:57:51;8.43;;;5.83;;
4422;SDS011;2224;49.814;8.650;2024-03-17T15:00:17;6.23;;;5.63;;
4422;SDS011;2224;49.814;8.650;2024-03-17T15:02:44;5.77;;;5.00;;
4422;SDS011;2224;49.814;8.650;2024-03-17T15:05:11;6.53;;;5.47;;
4422;SDS011;2224;49.814;8.650;2024-03-17T15:07:37;7.60;;;6.10;;
4422;SDS011;2224;49.814;8.650;2024-03-17T15:10:03;5.90;;;5.30;;
4422;SDS011;2224;49.814;8.650;2024-03-17T15:12:30;7.50;;;4.93;;
4422;SDS011;2224;49.814;8.650;2024-03-17T15:14:55;7.10;;;5.67;;
4422;SDS011;2224;49.814;8.650;2024-03-17T15:17:21;5.70;;;5.10;;
4422;SDS011;2224;49.814;8.650;2024-03-17T15:19:46;6.87;;;5.17;;
4422;SDS011;2224;49.814;8.650;2024-03-17T15:22:12;6.20;;;5.43;;
4422;SDS011;2224;49.814;8.650;2024-03-17T15:24:37;6.90;;;4.87;;
4422;SDS011;2224;49.814;8.650;2024-03-17T15:27:02;5.30;;;4.77;;
4422;SDS011;2224;49.814;8.650;2024-03-17T15:29:28;8.30;;;5.60;;
4422;SDS011;2224;49.814;8.650;2024-03-17T15:31:53;6.27;;;5.00;;
4422;SDS011;2224;49.814;8.650;2024-03-17T15:34:18;7.30;;;6.60;;
4422;SDS011;2224;49.814;8.650;2024-03-17T15:36:44;6.90;;;5.93;;
4422;SDS011;2224;49.814;8.650;2024-03-17T15:39:09;6.17;;;5.50;;
4422;SDS011;2224;49.814;8.650;2024-03-17T15:41:36;6.00;;;5.03;;
4422;SDS011;2224;49.814;8.650;2024-03-17T15:44:02;7.50;;;5.60;;
4422;SDS011;2224;49.814;8.650;2024-03-17T15:46:27;5.40;;;4.90;;